createdAt,value
2019-02-10T05:01:21.669Z,2.70
2019-02-10T05:03:51.178Z,3.23
2019-02-10T05:06:20.233Z,2.30
2019-02-10T05:08:49.045Z,2.37
2019-02-10T05:11:18.261Z,2.57
2019-02-10T05:13:47.056Z,2.67
2019-02-10T05:16:16.245Z,2.73
2019-02-10T05:18:45.100Z,3.13
2019-02-10T05:21:13.904Z,2.83
2019-02-10T05:23:42.771Z,2.70
2019-02-10T05:26:11.994Z,2.90
2019-02-10T05:28:41.203Z,3.50
2019-02-10T05:31:10.089Z,3.03
2019-02-10T05:33:39.157Z,3.47
2019-02-10T05:36:08.207Z,2.90
2019-02-10T05:38:37.070Z,3.73
2019-02-10T05:41:06.169Z,3.10
2019-02-10T05:43:35.320Z,3.40
2019-02-10T05:46:04.280Z,3.40
2019-02-10T05:48:33.440Z,3.17
2019-02-10T05:51:02.257Z,3.47
2019-02-10T05:53:31.464Z,3.40
2019-02-10T05:56:00.271Z,3.03
2019-02-10T05:58:29.081Z,3.20
2019-02-10T06:01:35.228Z,3.37
2019-02-10T06:04:04.032Z,3.57
2019-02-10T06:06:32.852Z,4.90
2019-02-10T06:09:02.078Z,4.23
2019-02-10T06:11:31.181Z,3.87
2019-02-10T06:14:00.232Z,3.67
2019-02-10T06:16:29.653Z,5.13
2019-02-10T06:18:59.177Z,4.07
2019-02-10T06:21:28.658Z,3.93
2019-02-10T06:23:57.848Z,3.70
2019-02-10T06:26:27.941Z,3.50
2019-02-10T06:28:57.274Z,3.80
2019-02-10T06:31:26.184Z,3.67
2019-02-10T06:33:55.006Z,3.73
2019-02-10T06:36:24.139Z,3.40
2019-02-10T06:38:53.331Z,3.97
2019-02-10T06:41:22.835Z,3.60
2019-02-10T06:43:51.702Z,3.80
2019-02-10T06:46:20.605Z,4.07
2019-02-10T06:48:49.708Z,3.80
2019-02-10T06:51:18.876Z,3.70
2019-02-10T06:53:48.001Z,3.83
2019-02-10T06:56:17.228Z,3.93
2019-02-10T06:58:46.291Z,3.80
2019-02-10T07:01:40.588Z,3.80
2019-02-10T07:04:19.200Z,3.83
2019-02-10T07:06:48.297Z,3.70
2019-02-10T07:09:17.175Z,3.73
2019-02-10T07:11:46.252Z,3.53
2019-02-10T07:14:28.501Z,3.47
2019-02-10T07:17:38.394Z,3.70
2019-02-10T07:20:44.189Z,3.53
2019-02-10T07:24:05.548Z,3.97
2019-02-10T07:27:11.248Z,3.93
2019-02-10T07:30:13.373Z,3.83
2019-02-10T07:32:46.141Z,4.13
2019-02-10T07:35:59.849Z,3.57
2019-02-10T07:39:07.489Z,2.90
2019-02-10T07:42:04.400Z,3.00
2019-02-10T07:44:54.592Z,3.40
2019-02-10T07:48:26.354Z,3.43
2019-02-10T07:51:22.748Z,4.50
2019-02-10T07:54:27.342Z,4.03
2019-02-10T07:57:15.181Z,5.10
2019-02-10T08:00:17.059Z,5.97
2019-02-10T08:03:06.956Z,6.93
2019-02-10T08:06:13.074Z,6.00
2019-02-10T08:09:18.388Z,5.63
2019-02-10T08:12:30.409Z,5.07
2019-02-10T08:15:16.969Z,5.07
2019-02-10T08:18:02.036Z,4.30
2019-02-10T08:20:50.329Z,3.73
2019-02-10T08:23:37.757Z,3.40
2019-02-10T08:26:45.208Z,3.30
2019-02-10T08:29:36.147Z,3.17
2019-02-10T08:32:39.407Z,3.03
2019-02-10T08:35:55.642Z,2.90
2019-02-10T08:38:54.708Z,2.80
2019-02-10T08:42:11.172Z,2.90
2019-02-10T08:45:13.981Z,2.77
2019-02-10T08:48:21.900Z,2.60
2019-02-10T08:51:41.152Z,2.80
2019-02-10T08:54:10.424Z,3.23
2019-02-10T08:56:39.241Z,2.70
2019-02-10T08:59:08.205Z,2.80
2019-02-10T09:01:37.204Z,2.70
2019-02-10T09:04:07.446Z,2.70
2019-02-10T09:06:36.325Z,2.40
2019-02-10T09:09:07.457Z,2.30
2019-02-10T09:11:36.349Z,2.73
2019-02-10T09:14:05.245Z,2.70
2019-02-10T09:16:34.432Z,2.43
2019-02-10T09:19:03.234Z,2.53
2019-02-10T09:21:32.684Z,2.57
2019-02-10T09:24:01.985Z,2.80
2019-02-10T09:26:30.853Z,2.70
2019-02-10T09:28:59.708Z,2.50
2019-02-10T09:31:28.784Z,2.53
2019-02-10T09:33:57.848Z,2.83
2019-02-10T09:36:26.652Z,2.67
2019-02-10T09:38:56.040Z,2.80
2019-02-10T09:41:24.837Z,2.70
2019-02-10T09:43:54.025Z,2.33
2019-02-10T09:46:22.895Z,2.43
2019-02-10T09:48:51.787Z,2.70
2019-02-10T09:51:20.728Z,2.30
2019-02-10T09:53:49.545Z,2.33
2019-02-10T09:56:18.434Z,2.27
2019-02-10T09:58:47.683Z,2.30
2019-02-10T10:01:17.283Z,2.43
2019-02-10T10:03:46.155Z,2.43
2019-02-10T10:06:15.007Z,2.30
2019-02-10T10:08:44.213Z,2.37
2019-02-10T10:11:13.344Z,2.50
2019-02-10T10:13:42.164Z,2.20
2019-02-10T10:16:11.339Z,2.40
2019-02-10T10:18:40.213Z,2.30
2019-02-10T10:21:09.128Z,2.60
2019-02-10T10:23:38.356Z,2.33
2019-02-10T10:26:07.541Z,2.80
2019-02-10T10:28:36.805Z,2.47
2019-02-10T10:31:05.675Z,2.40
2019-02-10T10:33:34.659Z,2.97
2019-02-10T10:36:04.293Z,2.63
2019-02-10T10:38:33.290Z,2.53
2019-02-10T10:41:02.105Z,3.10
2019-02-10T10:43:31.960Z,2.90
2019-02-10T10:46:00.832Z,2.83
2019-02-10T10:48:29.673Z,3.00
2019-02-10T10:50:58.970Z,3.00
2019-02-10T10:53:28.476Z,2.80
2019-02-10T10:55:58.082Z,2.80
2019-02-10T10:58:26.898Z,3.17
2019-02-10T11:00:55.797Z,2.80
2019-02-10T11:03:24.606Z,2.93
2019-02-10T11:05:53.547Z,3.37
2019-02-10T11:08:23.006Z,3.40
2019-02-10T11:10:52.009Z,2.70
2019-02-10T11:13:21.144Z,2.60
2019-02-10T11:15:50.753Z,2.87
2019-02-10T11:18:20.035Z,3.17
2019-02-10T11:20:49.009Z,3.13
2019-02-10T11:23:18.828Z,3.03
2019-02-10T11:25:48.240Z,3.10
2019-02-10T11:28:17.120Z,3.10
2019-02-10T11:30:46.758Z,3.70
2019-02-10T11:33:17.180Z,3.30
2019-02-10T11:35:46.686Z,3.50
2019-02-10T11:38:15.652Z,2.70
2019-02-10T11:40:44.468Z,2.60
2019-02-10T11:43:13.304Z,3.37
2019-02-10T11:45:42.628Z,2.80
2019-02-10T11:48:12.140Z,2.60
2019-02-10T11:50:41.037Z,2.90
2019-02-10T11:53:09.867Z,2.90
2019-02-10T11:55:38.854Z,2.90
2019-02-10T11:58:08.109Z,2.67
2019-02-10T12:00:36.901Z,2.50
2019-02-10T12:03:06.299Z,2.80
2019-02-10T12:05:35.200Z,2.90
2019-02-10T12:08:04.393Z,2.93
2019-02-10T12:10:33.552Z,3.10
2019-02-10T12:13:02.992Z,2.80
2019-02-10T12:15:32.492Z,3.03
2019-02-10T12:18:01.618Z,2.60
2019-02-10T12:20:31.198Z,2.90
2019-02-10T12:23:00.140Z,2.90
2019-02-10T12:25:29.059Z,3.00
2019-02-10T12:27:58.576Z,3.10
2019-02-10T12:30:27.717Z,2.90
2019-02-10T12:32:56.554Z,2.50
2019-02-10T12:35:25.861Z,2.70
2019-02-10T12:37:54.983Z,2.50
2019-02-10T12:40:24.120Z,2.90
2019-02-10T12:42:53.571Z,2.57
2019-02-10T12:45:22.749Z,3.03
2019-02-10T12:47:52.293Z,2.50
2019-02-10T12:50:21.553Z,2.80
2019-02-10T12:52:51.245Z,2.67
2019-02-10T12:55:21.097Z,2.80
2019-02-10T12:57:50.091Z,3.10
2019-02-10T13:00:19.064Z,2.30
2019-02-10T13:02:47.908Z,2.70
2019-02-10T13:05:16.724Z,2.50
2019-02-10T13:07:45.869Z,2.40
2019-02-10T13:10:17.399Z,2.70
2019-02-10T13:12:45.534Z,2.60
2019-02-10T13:15:14.660Z,2.50
2019-02-10T13:17:43.990Z,2.30
2019-02-10T13:20:13.296Z,2.70
2019-02-10T13:22:42.486Z,2.60
2019-02-10T13:25:11.733Z,2.47
2019-02-10T13:27:40.641Z,2.40
2019-02-10T13:30:11.562Z,2.53
2019-02-10T13:32:40.788Z,2.60
2019-02-10T13:35:09.805Z,2.40
2019-02-10T13:37:39.069Z,2.77
2019-02-10T13:40:16.635Z,2.67
2019-02-10T13:42:42.690Z,2.33
2019-02-10T13:45:11.712Z,2.40
2019-02-10T13:47:41.063Z,2.77
2019-02-10T13:50:11.401Z,2.50
2019-02-10T13:52:40.565Z,2.50
2019-02-10T13:55:10.805Z,2.63
2019-02-10T13:57:40.142Z,2.50
2019-02-10T14:00:12.621Z,2.60
2019-02-10T14:02:42.452Z,2.60
2019-02-10T14:05:11.694Z,2.77
2019-02-10T14:07:40.734Z,2.77
2019-02-10T14:10:11.181Z,3.00
2019-02-10T14:12:43.411Z,2.60
2019-02-10T14:15:13.150Z,2.77
2019-02-10T14:17:42.611Z,2.40
2019-02-10T14:20:13.841Z,2.80
2019-02-10T14:22:43.417Z,2.80
2019-02-10T14:25:12.500Z,2.70
2019-02-10T14:27:42.381Z,2.47
2019-02-10T14:30:13.130Z,2.63
2019-02-10T14:32:42.316Z,2.70
2019-02-10T14:35:11.237Z,2.83
2019-02-10T14:37:40.301Z,2.63
2019-02-10T14:40:09.538Z,2.57
2019-02-10T14:42:38.936Z,2.53
2019-02-10T14:45:08.955Z,2.93
2019-02-10T14:47:38.233Z,3.20
2019-02-10T14:50:08.837Z,2.60
2019-02-10T14:52:38.019Z,2.80
2019-02-10T14:55:06.857Z,3.10
2019-02-10T14:57:35.689Z,2.77
2019-02-10T15:00:06.142Z,2.70
2019-02-10T15:02:35.345Z,2.40
2019-02-10T15:05:04.385Z,2.60
2019-02-10T15:07:34.820Z,2.50
2019-02-10T15:10:04.276Z,2.70
2019-02-10T15:12:33.124Z,2.50
2019-02-10T15:15:01.962Z,2.30
2019-02-10T15:17:31.321Z,2.30
2019-02-10T15:20:00.219Z,2.20
2019-02-10T15:22:29.557Z,2.23
2019-02-10T15:24:58.914Z,2.30
2019-02-10T15:27:27.780Z,2.53
2019-02-10T15:29:57.011Z,2.10
2019-02-10T15:32:25.904Z,2.20
2019-02-10T15:34:55.065Z,2.10
2019-02-10T15:37:24.280Z,2.10
2019-02-10T15:39:53.463Z,2.13
2019-02-10T15:42:22.816Z,2.30
2019-02-10T15:44:51.680Z,1.90
2019-02-10T15:47:20.635Z,1.80
2019-02-10T15:49:49.505Z,1.80
2019-02-10T15:52:18.317Z,2.27
2019-02-10T15:54:47.216Z,1.97
2019-02-10T15:57:16.120Z,2.20
2019-02-10T15:59:44.968Z,1.90
2019-02-10T16:02:14.085Z,2.00
2019-02-10T16:04:43.149Z,2.20
2019-02-10T16:07:12.064Z,2.40
2019-02-10T16:09:41.433Z,2.50
2019-02-10T16:12:10.385Z,1.90
2019-02-10T16:14:39.504Z,1.90
2019-02-10T16:17:08.536Z,1.70
2019-02-10T16:19:37.865Z,2.10
2019-02-10T16:22:07.164Z,1.90
2019-02-10T16:24:36.346Z,1.97
2019-02-10T16:27:05.442Z,1.67
2019-02-10T16:29:34.341Z,1.73
2019-02-10T16:32:03.200Z,1.80
2019-02-10T16:34:32.366Z,1.77
2019-02-10T16:37:01.456Z,1.77
2019-02-10T16:39:31.038Z,1.80
2019-02-10T16:41:59.960Z,1.93
2019-02-10T16:44:29.599Z,1.87
2019-02-10T16:46:58.493Z,1.80
2019-02-10T16:49:27.580Z,1.90
2019-02-10T16:51:56.421Z,2.17
2019-02-10T16:54:25.576Z,1.90
2019-02-10T16:56:54.634Z,1.83
2019-02-10T16:59:23.526Z,2.00
2019-02-10T17:01:52.710Z,2.30
2019-02-10T17:04:21.882Z,2.43
2019-02-10T17:06:50.796Z,2.30
2019-02-10T17:09:20.124Z,2.00
2019-02-10T17:11:50.021Z,2.10
2019-02-10T17:14:19.656Z,2.20
2019-02-10T17:16:48.771Z,2.07
2019-02-10T17:19:17.661Z,2.10
2019-02-10T17:21:46.854Z,2.10
2019-02-10T17:24:15.768Z,2.20
2019-02-10T17:26:44.630Z,2.00
2019-02-10T17:29:13.875Z,2.20
2019-02-10T17:31:43.767Z,1.80
2019-02-10T17:34:13.380Z,2.20
2019-02-10T17:36:42.229Z,2.00
2019-02-10T17:39:15.628Z,2.00
2019-02-10T17:41:46.778Z,1.80
2019-02-10T17:44:16.365Z,1.93
2019-02-10T17:46:46.084Z,2.30
2019-02-10T17:49:15.394Z,1.80
2019-02-10T17:51:44.662Z,1.87
2019-02-10T17:54:13.572Z,2.10
2019-02-10T17:56:43.093Z,1.80
2019-02-10T17:59:12.365Z,1.80
2019-02-10T18:01:41.336Z,1.87
2019-02-10T18:04:10.610Z,1.80
2019-02-10T18:06:40.263Z,1.90
2019-02-10T18:09:09.839Z,2.00
2019-02-10T18:11:39.100Z,1.90
2019-02-10T18:14:26.564Z,2.00
2019-02-10T18:17:09.501Z,1.80
2019-02-10T18:19:44.674Z,1.80
2019-02-10T18:22:35.989Z,1.77
2019-02-10T18:25:30.014Z,1.87
2019-02-10T18:28:07.371Z,2.13
2019-02-10T18:30:46.178Z,2.13
2019-02-10T18:33:28.072Z,1.90
2019-02-10T18:36:13.367Z,2.03
2019-02-10T18:38:51.536Z,1.80
2019-02-10T18:41:39.646Z,1.70
2019-02-10T18:44:23.436Z,1.70
2019-02-10T18:47:11.693Z,1.70
2019-02-10T18:50:02.796Z,1.70
2019-02-10T18:52:48.899Z,1.90
2019-02-10T18:55:46.545Z,1.77
2019-02-10T18:58:21.145Z,1.60
2019-02-10T19:01:17.006Z,1.70
2019-02-10T19:03:54.997Z,1.80
2019-02-10T19:06:41.415Z,2.00
2019-02-10T19:09:20.538Z,1.80
2019-02-10T19:11:59.973Z,1.60
2019-02-10T19:14:47.213Z,3.83
2019-02-10T19:17:35.934Z,1.80
2019-02-10T19:20:23.873Z,1.70
2019-02-10T19:23:12.319Z,1.67
2019-02-10T19:26:00.328Z,1.60
2019-02-10T19:28:51.401Z,1.80
2019-02-10T19:31:32.949Z,1.60
2019-02-10T19:34:12.412Z,1.80
2019-02-10T19:37:19.216Z,1.50
2019-02-10T19:40:06.101Z,1.80
2019-02-10T19:42:42.544Z,1.70
2019-02-10T19:45:31.940Z,1.90
2019-02-10T19:48:17.283Z,1.80
2019-02-10T19:51:04.536Z,2.07
2019-02-10T19:53:46.399Z,1.70
2019-02-10T19:56:20.580Z,2.03
2019-02-10T19:59:07.599Z,2.03
2019-02-10T20:01:55.565Z,2.07
2019-02-10T20:04:35.278Z,1.60
2019-02-10T20:07:23.349Z,2.10
2019-02-10T20:10:07.285Z,1.80
2019-02-10T20:12:54.078Z,1.70
2019-02-10T20:15:35.281Z,1.50
2019-02-10T20:18:26.476Z,1.70
2019-02-10T20:21:29.530Z,1.80
2019-02-10T20:24:11.639Z,1.63
2019-02-10T20:26:59.872Z,1.50
2019-02-10T20:29:54.729Z,1.60
2019-02-10T20:32:42.358Z,1.70
2019-02-10T20:35:30.649Z,1.60
2019-02-10T20:38:16.178Z,1.40
2019-02-10T20:41:05.604Z,1.37
2019-02-10T20:43:53.805Z,1.30
2019-02-10T20:46:44.922Z,1.80
2019-02-10T20:49:32.464Z,1.50
2019-02-10T20:52:19.334Z,1.50
2019-02-10T20:55:01.345Z,1.50
2019-02-10T20:57:43.061Z,1.57
2019-02-10T21:00:29.384Z,1.23
2019-02-10T21:03:06.928Z,1.30
2019-02-10T21:05:55.391Z,1.30
2019-02-10T21:08:58.891Z,1.30
2019-02-10T21:11:45.514Z,1.40
2019-02-10T21:14:32.206Z,1.30
2019-02-10T21:17:08.345Z,1.50
2019-02-10T21:20:02.737Z,1.23
2019-02-10T21:22:57.963Z,1.20
2019-02-10T21:25:52.395Z,1.30
2019-02-10T21:28:27.348Z,1.33
2019-02-10T21:31:12.240Z,1.17
2019-02-10T21:34:05.348Z,1.20
2019-02-10T21:37:08.681Z,1.03
2019-02-10T21:39:56.542Z,1.23
2019-02-10T21:42:30.121Z,1.10
2019-02-10T21:45:18.407Z,1.20
2019-02-10T21:47:51.232Z,1.10
2019-02-10T21:50:20.017Z,1.20
2019-02-10T21:52:49.533Z,0.90
2019-02-10T21:55:18.781Z,0.93
2019-02-10T21:57:47.620Z,1.40
